Decoded Metar for LEMD (MADRID in SPAIN) (IATA:MAD) | Meteo·Mobile Aviation Weather
aviador You're here:

LEMD Decoded Metar

MADRID in SPAIN
Report Time2020-02-18 21:30:00
UTC Time2020-02-18 21:46:11
Flight Rules vfr VFR
Wind320° at 06 kt
W.Decomp.*RWY 32: 6.0 kt HW 0.2 kt RCW
RWY 36: 4.7 kt HW 3.7 kt LCW
Visibility9999 m
Phenomena:N/A
Clouds:Few 060 Hf
Expected CloudBase > 1,600 ft AGL from Temp-Dew spread
CeilingNone
Temp07°C (ISA -4)
Dew Point03°C (76% RH)
AAT3.3°C
QNH1031 hPa
Density Alt909 ft
Elevation1,909 ft
Report Wrong Elevation
Raw Report
LEMD 182130Z 32006KT 9999 FEW060 07/03 Q1031 NOSIG=

Extra information for LEMD:More info

Metar Taf Metar & Taf Last 4 Metars F.Rules Stats Wind Profile Meteogram Temp Stats Airport Information Weather charts Add Link Nearby VenuesMetar ALERT Operation Metar Decoded Social comments